Hobart Regional Airport
KHBR : now visible

Airfield :











YOU CAN JOIN US ON...

 
LOGIN :

Register | Disclaimer

   EN    FR    IT 

 









Legend :    VFR   Marginal VFR   IFR   Intensive IFR   Very Intensive IFR
Visi :
Ceiling :
>= 8 km
>= 3000ft
5 to 8 km
1000 to 3000 ft
1500m to 5 km
500 to 1000 ft
800 to 1500m
200 to 500 ft
< 800m
< 200 ft
Symbols :   Thunderstorms  Fog  Heavy snow  Heavy precipitations  Wind > 20 kt






- Airport Elevation : 1563 ft


KHBR - Hobart Regional

CURRENT METAR :
  • 250153Z AUTO 33010G16KT 10SM OVC037 17/12 A2979 RMK AO2 SLP079 T01670122

EXPIRED METARs :
  • 250104Z AUTO 34011G17KT 10SM SCT026 OVC034 18/13 A2978 RMK AO2 T01780128
  • 250053Z AUTO 27005KT 10SM BKN029 OVC034 18/13 A2978 RMK AO2 SLP074 T01780133
  • 250031Z AUTO VRB06KT 10SM BKN029 OVC036 18/13 A2976 RMK AO2 T01780133
  • 242353Z AUTO 02003KT 10SM BKN040 OVC047 18/13 A2974 RMK AO2 SLP063 T01830128 10189 20156 58006

Expired Forecast.
KZFW FIR / North America



MET'MAP, your aeronautical weather chart ! - Copyright ORBIFLY December 2007 - Disclaimer

ORBIFLY MET'MAP TEAM :

Programming & Development : Alexandra Zaïnal
Original concept : Baudouin d'Aumeries
Technical & hardware support : Manuel Goepfert
Assistance : Marc-Olivier Méhu

Contact : metmap@orbifly.com




SOURCES & CREDITS :

   NOAA       Earth
Advisory